logo
Search for airport 
image banner adimage banner adimage banner ad
image banner ad

EDBNF - Braunfels

Located in , Germany

ICAO - , IATA -

Data provided by Airmate  

General information

Coordinates: N50°31'32" E8°23'36"
Elevation is 787 feet MSL.
 
View others Airports in Hesse

Operational data

Special qualification required
Current time UTC:
Current local time:
Weather at : EDGS - Siegerland ( 30 km )
METAR: EDGS 282350Z AUTO 20007KT 9999 // FEW087/// SCT170/// 17/14 Q1019
TAF: TAF EDGS 281700Z 2818/2903 21005KT CAVOK
View NOTAMs / SUP AIP / TFR affecting this airport [VIEW]
Communications frequencies: [VIEW]

Runways:

RWY identifierQFULength (ft)Width (ft)SurfaceLDA (ft)
0772°1969115GRASS
25252°1969115GRASS

Airport contact information

Address: Germany

Satellite view of EDBNF